sensor_id;sensor_type;location;lat;lon;timestamp;P1;durP1;ratioP1;P2;durP2;ratioP2
43996;SDS011;34318;45.818;15.964;2023-07-31T00:00:22;1.92;;;1.83;;
43996;SDS011;34318;45.818;15.964;2023-07-31T00:02:50;1.58;;;1.48;;
43996;SDS011;34318;45.818;15.964;2023-07-31T00:05:18;1.67;;;1.58;;
43996;SDS011;34318;45.818;15.964;2023-07-31T00:07:45;1.55;;;1.45;;
43996;SDS011;34318;45.818;15.964;2023-07-31T00:10:12;2.88;;;1.55;;
43996;SDS011;34318;45.818;15.964;2023-07-31T00:12:41;1.70;;;1.48;;
43996;SDS011;34318;45.818;15.964;2023-07-31T00:15:09;1.33;;;1.33;;
43996;SDS011;34318;45.818;15.964;2023-07-31T00:17:36;1.50;;;1.40;;
43996;SDS011;34318;45.818;15.964;2023-07-31T00:20:04;2.20;;;2.00;;
43996;SDS011;34318;45.818;15.964;2023-07-31T00:22:31;1.63;;;1.52;;
43996;SDS011;34318;45.818;15.964;2023-07-31T00:24:58;1.70;;;1.60;;
43996;SDS011;34318;45.818;15.964;2023-07-31T00:27:26;1.92;;;1.83;;
43996;SDS011;34318;45.818;15.964;2023-07-31T00:29:53;1.73;;;1.63;;
43996;SDS011;34318;45.818;15.964;2023-07-31T00:32:20;1.73;;;1.63;;
43996;SDS011;34318;45.818;15.964;2023-07-31T00:34:47;1.80;;;1.70;;
43996;SDS011;34318;45.818;15.964;2023-07-31T00:37:14;1.52;;;1.38;;
43996;SDS011;34318;45.818;15.964;2023-07-31T00:39:42;1.50;;;1.40;;
43996;SDS011;34318;45.818;15.964;2023-07-31T00:42:09;1.55;;;1.45;;
43996;SDS011;34318;45.818;15.964;2023-07-31T00:44:36;1.30;;;1.30;;
43996;SDS011;34318;45.818;15.964;2023-07-31T00:47:03;1.70;;;1.60;;
43996;SDS011;34318;45.818;15.964;2023-07-31T00:49:30;1.55;;;1.48;;
43996;SDS011;34318;45.818;15.964;2023-07-31T00:51:58;1.85;;;1.75;;
43996;SDS011;34318;45.818;15.964;2023-07-31T00:54:26;1.58;;;1.48;;
43996;SDS011;34318;45.818;15.964;2023-07-31T00:56:53;1.92;;;1.40;;
43996;SDS011;34318;45.818;15.964;2023-07-31T00:59:21;1.80;;;1.70;;
43996;SDS011;34318;45.818;15.964;2023-07-31T01:01:48;1.75;;;1.65;;
43996;SDS011;34318;45.818;15.964;2023-07-31T01:04:16;2.80;;;1.52;;
43996;SDS011;34318;45.818;15.964;2023-07-31T01:07:02;1.67;;;1.58;;
43996;SDS011;34318;45.818;15.964;2023-07-31T01:09:47;1.50;;;1.40;;
43996;SDS011;34318;45.818;15.964;2023-07-31T01:12:16;1.58;;;1.48;;
43996;SDS011;34318;45.818;15.964;2023-07-31T01:17:30;1.63;;;1.52;;
43996;SDS011;34318;45.818;15.964;2023-07-31T01:19:59;2.10;;;1.90;;
43996;SDS011;34318;45.818;15.964;2023-07-31T01:28:07;1.70;;;1.60;;
43996;SDS011;34318;45.818;15.964;2023-07-31T01:30:37;3.70;;;1.55;;
43996;SDS011;34318;45.818;15.964;2023-07-31T01:33:07;1.58;;;1.52;;
43996;SDS011;34318;45.818;15.964;2023-07-31T01:35:35;1.60;;;1.50;;
43996;SDS011;34318;45.818;15.964;2023-07-31T01:38:03;1.65;;;1.30;;
43996;SDS011;34318;45.818;15.964;2023-07-31T01:40:31;1.90;;;1.80;;
43996;SDS011;34318;45.818;15.964;2023-07-31T01:42:58;2.03;;;1.58;;
43996;SDS011;34318;45.818;15.964;2023-07-31T01:45:26;1.90;;;1.80;;
43996;SDS011;34318;45.818;15.964;2023-07-31T01:47:54;1.92;;;1.83;;
43996;SDS011;34318;45.818;15.964;2023-07-31T01:50:21;1.60;;;1.50;;
43996;SDS011;34318;45.818;15.964;2023-07-31T01:52:48;1.88;;;1.67;;
43996;SDS011;34318;45.818;15.964;2023-07-31T01:55:15;1.90;;;1.80;;
43996;SDS011;34318;45.818;15.964;2023-07-31T01:57:42;1.63;;;1.52;;
43996;SDS011;34318;45.818;15.964;2023-07-31T02:00:10;1.60;;;1.50;;
43996;SDS011;34318;45.818;15.964;2023-07-31T02:02:37;1.67;;;1.58;;
43996;SDS011;34318;45.818;15.964;2023-07-31T02:05:05;1.92;;;1.83;;
43996;SDS011;34318;45.818;15.964;2023-07-31T02:07:32;1.73;;;1.58;;
43996;SDS011;34318;45.818;15.964;2023-07-31T02:09:59;1.55;;;1.45;;
43996;SDS011;34318;45.818;15.964;2023-07-31T02:12:26;1.58;;;1.48;;
43996;SDS011;34318;45.818;15.964;2023-07-31T02:14:56;1.80;;;1.70;;
43996;SDS011;34318;45.818;15.964;2023-07-31T02:17:23;2.65;;;1.75;;
43996;SDS011;34318;45.818;15.964;2023-07-31T02:19:51;4.30;;;1.80;;
43996;SDS011;34318;45.818;15.964;2023-07-31T02:22:18;2.38;;;1.38;;
43996;SDS011;34318;45.818;15.964;2023-07-31T02:24:46;1.58;;;1.48;;
43996;SDS011;34318;45.818;15.964;2023-07-31T02:27:13;1.50;;;1.40;;
43996;SDS011;34318;45.818;15.964;2023-07-31T02:29:40;2.63;;;2.42;;
43996;SDS011;34318;45.818;15.964;2023-07-31T02:32:07;1.80;;;1.70;;
43996;SDS011;34318;45.818;15.964;2023-07-31T02:34:35;1.77;;;1.67;;
43996;SDS011;34318;45.818;15.964;2023-07-31T02:37:02;1.80;;;1.70;;
43996;SDS011;34318;45.818;15.964;2023-07-31T02:39:29;1.70;;;1.60;;
43996;SDS011;34318;45.818;15.964;2023-07-31T02:41:57;1.80;;;1.70;;
43996;SDS011;34318;45.818;15.964;2023-07-31T02:44:24;1.73;;;1.63;;
43996;SDS011;34318;45.818;15.964;2023-07-31T02:46:51;1.90;;;1.80;;
43996;SDS011;34318;45.818;15.964;2023-07-31T02:49:18;1.42;;;1.30;;
43996;SDS011;34318;45.818;15.964;2023-07-31T02:51:45;1.70;;;1.60;;
43996;SDS011;34318;45.818;15.964;2023-07-31T02:54:13;1.75;;;1.65;;
43996;SDS011;34318;45.818;15.964;2023-07-31T02:56:40;1.60;;;1.50;;
43996;SDS011;34318;45.818;15.964;2023-07-31T02:59:07;1.35;;;1.35;;
43996;SDS011;34318;45.818;15.964;2023-07-31T03:01:35;1.48;;;1.38;;
43996;SDS011;34318;45.818;15.964;2023-07-31T03:04:02;1.98;;;1.88;;
43996;SDS011;34318;45.818;15.964;2023-07-31T03:06:29;1.67;;;1.55;;
43996;SDS011;34318;45.818;15.964;2023-07-31T03:08:56;1.65;;;1.55;;
43996;SDS011;34318;45.818;15.964;2023-07-31T03:11:23;1.92;;;1.83;;
43996;SDS011;34318;45.818;15.964;2023-07-31T03:13:50;2.15;;;1.95;;
43996;SDS011;34318;45.818;15.964;2023-07-31T03:16:18;2.00;;;1.90;;
43996;SDS011;34318;45.818;15.964;2023-07-31T03:18:45;1.70;;;1.60;;
43996;SDS011;34318;45.818;15.964;2023-07-31T03:21:14;1.70;;;1.60;;
43996;SDS011;34318;45.818;15.964;2023-07-31T03:23:41;1.80;;;1.70;;
43996;SDS011;34318;45.818;15.964;2023-07-31T03:26:09;1.60;;;1.50;;
43996;SDS011;34318;45.818;15.964;2023-07-31T03:28:37;1.80;;;1.70;;
43996;SDS011;34318;45.818;15.964;2023-07-31T03:31:04;1.60;;;1.50;;
43996;SDS011;34318;45.818;15.964;2023-07-31T03:33:31;2.75;;;1.80;;
43996;SDS011;34318;45.818;15.964;2023-07-31T03:35:58;2.25;;;1.80;;
43996;SDS011;34318;45.818;15.964;2023-07-31T03:38:26;1.98;;;1.83;;
43996;SDS011;34318;45.818;15.964;2023-07-31T03:40:53;1.50;;;1.40;;
43996;SDS011;34318;45.818;15.964;2023-07-31T03:43:20;1.30;;;1.30;;
43996;SDS011;34318;45.818;15.964;2023-07-31T03:45:47;2.25;;;2.05;;
43996;SDS011;34318;45.818;15.964;2023-07-31T03:48:14;2.15;;;1.58;;
43996;SDS011;34318;45.818;15.964;2023-07-31T03:50:42;1.52;;;1.42;;
43996;SDS011;34318;45.818;15.964;2023-07-31T03:53:10;1.60;;;1.50;;
43996;SDS011;34318;45.818;15.964;2023-07-31T03:55:37;2.13;;;1.90;;
43996;SDS011;34318;45.818;15.964;2023-07-31T03:58:04;1.65;;;1.55;;
43996;SDS011;34318;45.818;15.964;2023-07-31T04:00:31;1.77;;;1.67;;
43996;SDS011;34318;45.818;15.964;2023-07-31T04:02:58;1.65;;;1.55;;
43996;SDS011;34318;45.818;15.964;2023-07-31T04:05:26;1.90;;;1.80;;
43996;SDS011;34318;45.818;15.964;2023-07-31T04:07:53;1.90;;;1.80;;
43996;SDS011;34318;45.818;15.964;2023-07-31T04:10:20;1.60;;;1.50;;
43996;SDS011;34318;45.818;15.964;2023-07-31T04:12:48;1.58;;;1.48;;
43996;SDS011;34318;45.818;15.964;2023-07-31T04:15:15;2.00;;;1.90;;
43996;SDS011;34318;45.818;15.964;2023-07-31T04:17:42;1.70;;;1.60;;
43996;SDS011;34318;45.818;15.964;2023-07-31T04:20:09;1.88;;;1.65;;
43996;SDS011;34318;45.818;15.964;2023-07-31T04:22:37;1.92;;;1.83;;
43996;SDS011;34318;45.818;15.964;2023-07-31T04:25:04;2.22;;;1.70;;
43996;SDS011;34318;45.818;15.964;2023-07-31T04:27:32;1.90;;;1.80;;
43996;SDS011;34318;45.818;15.964;2023-07-31T04:29:59;1.40;;;1.40;;
43996;SDS011;34318;45.818;15.964;2023-07-31T04:32:26;2.67;;;2.45;;
43996;SDS011;34318;45.818;15.964;2023-07-31T04:34:55;1.63;;;1.60;;
43996;SDS011;34318;45.818;15.964;2023-07-31T04:37:22;1.40;;;1.40;;
43996;SDS011;34318;45.818;15.964;2023-07-31T04:39:49;1.98;;;1.55;;
43996;SDS011;34318;45.818;15.964;2023-07-31T04:42:16;2.70;;;1.77;;
43996;SDS011;34318;45.818;15.964;2023-07-31T04:44:43;1.90;;;1.80;;
43996;SDS011;34318;45.818;15.964;2023-07-31T04:47:11;2.05;;;1.80;;
43996;SDS011;34318;45.818;15.964;2023-07-31T04:49:38;2.00;;;1.90;;
43996;SDS011;34318;45.818;15.964;2023-07-31T04:52:05;1.80;;;1.70;;
43996;SDS011;34318;45.818;15.964;2023-07-31T04:54:32;2.05;;;1.92;;
43996;SDS011;34318;45.818;15.964;2023-07-31T04:57:00;1.58;;;1.50;;
43996;SDS011;34318;45.818;15.964;2023-07-31T04:59:27;2.63;;;2.00;;
43996;SDS011;34318;45.818;15.964;2023-07-31T05:01:54;2.00;;;1.80;;
43996;SDS011;34318;45.818;15.964;2023-07-31T05:04:21;1.80;;;1.70;;
43996;SDS011;34318;45.818;15.964;2023-07-31T05:06:49;2.03;;;1.70;;
43996;SDS011;34318;45.818;15.964;2023-07-31T05:09:16;1.80;;;1.70;;
43996;SDS011;34318;45.818;15.964;2023-07-31T05:11:44;1.85;;;1.75;;
43996;SDS011;34318;45.818;15.964;2023-07-31T05:14:11;1.65;;;1.55;;
43996;SDS011;34318;45.818;15.964;2023-07-31T05:16:38;2.20;;;2.00;;
43996;SDS011;34318;45.818;15.964;2023-07-31T05:19:06;1.95;;;1.85;;
43996;SDS011;34318;45.818;15.964;2023-07-31T05:21:34;2.20;;;2.00;;
43996;SDS011;34318;45.818;15.964;2023-07-31T05:24:01;1.90;;;1.80;;
43996;SDS011;34318;45.818;15.964;2023-07-31T05:26:28;2.10;;;1.90;;
43996;SDS011;34318;45.818;15.964;2023-07-31T05:28:55;1.85;;;1.75;;
43996;SDS011;34318;45.818;15.964;2023-07-31T05:31:24;2.30;;;1.98;;
43996;SDS011;34318;45.818;15.964;2023-07-31T05:33:51;3.00;;;2.08;;
43996;SDS011;34318;45.818;15.964;2023-07-31T05:36:18;2.05;;;1.95;;
43996;SDS011;34318;45.818;15.964;2023-07-31T05:38:46;1.95;;;1.85;;
43996;SDS011;34318;45.818;15.964;2023-07-31T05:41:13;2.17;;;1.98;;
43996;SDS011;34318;45.818;15.964;2023-07-31T05:43:40;2.75;;;2.00;;
43996;SDS011;34318;45.818;15.964;2023-07-31T05:46:07;2.20;;;2.00;;
43996;SDS011;34318;45.818;15.964;2023-07-31T05:48:35;2.45;;;2.25;;
43996;SDS011;34318;45.818;15.964;2023-07-31T05:51:03;1.90;;;1.80;;
43996;SDS011;34318;45.818;15.964;2023-07-31T05:53:30;2.03;;;1.83;;
43996;SDS011;34318;45.818;15.964;2023-07-31T05:55:57;2.47;;;2.28;;
43996;SDS011;34318;45.818;15.964;2023-07-31T05:58:24;2.55;;;2.25;;
43996;SDS011;34318;45.818;15.964;2023-07-31T06:00:52;1.92;;;1.83;;
43996;SDS011;34318;45.818;15.964;2023-07-31T06:03:19;2.38;;;1.92;;
43996;SDS011;34318;45.818;15.964;2023-07-31T06:05:46;1.90;;;1.80;;
43996;SDS011;34318;45.818;15.964;2023-07-31T06:08:13;2.35;;;1.83;;
43996;SDS011;34318;45.818;15.964;2023-07-31T06:10:41;2.10;;;2.00;;
43996;SDS011;34318;45.818;15.964;2023-07-31T06:13:08;3.00;;;2.30;;
43996;SDS011;34318;45.818;15.964;2023-07-31T06:15:35;2.97;;;2.17;;
43996;SDS011;34318;45.818;15.964;2023-07-31T06:18:02;2.40;;;2.20;;
43996;SDS011;34318;45.818;15.964;2023-07-31T06:20:31;2.00;;;1.90;;
43996;SDS011;34318;45.818;15.964;2023-07-31T06:22:58;3.22;;;2.30;;
43996;SDS011;34318;45.818;15.964;2023-07-31T06:25:25;2.60;;;2.40;;
43996;SDS011;34318;45.818;15.964;2023-07-31T06:27:52;2.50;;;2.15;;
43996;SDS011;34318;45.818;15.964;2023-07-31T06:30:20;2.38;;;2.17;;
43996;SDS011;34318;45.818;15.964;2023-07-31T06:32:47;2.30;;;2.10;;
43996;SDS011;34318;45.818;15.964;2023-07-31T06:35:14;2.08;;;1.98;;
43996;SDS011;34318;45.818;15.964;2023-07-31T06:37:41;2.30;;;2.10;;
43996;SDS011;34318;45.818;15.964;2023-07-31T06:40:10;2.33;;;2.15;;
43996;SDS011;34318;45.818;15.964;2023-07-31T06:42:37;2.28;;;2.08;;
43996;SDS011;34318;45.818;15.964;2023-07-31T06:45:05;2.03;;;1.80;;
43996;SDS011;34318;45.818;15.964;2023-07-31T06:47:32;2.30;;;2.10;;
43996;SDS011;34318;45.818;15.964;2023-07-31T06:49:59;2.47;;;2.28;;
43996;SDS011;34318;45.818;15.964;2023-07-31T06:52:27;2.33;;;2.22;;
43996;SDS011;34318;45.818;15.964;2023-07-31T06:55:01;1.85;;;1.75;;
43996;SDS011;34318;45.818;15.964;2023-07-31T06:57:29;2.30;;;2.10;;
43996;SDS011;34318;45.818;15.964;2023-07-31T06:59:56;1.98;;;1.88;;
43996;SDS011;34318;45.818;15.964;2023-07-31T07:02:24;3.03;;;2.58;;
43996;SDS011;34318;45.818;15.964;2023-07-31T07:04:51;2.45;;;2.20;;
43996;SDS011;34318;45.818;15.964;2023-07-31T07:07:18;2.42;;;2.22;;
43996;SDS011;34318;45.818;15.964;2023-07-31T07:09:45;2.38;;;2.13;;
43996;SDS011;34318;45.818;15.964;2023-07-31T07:12:13;2.58;;;2.38;;
43996;SDS011;34318;45.818;15.964;2023-07-31T07:14:40;2.42;;;2.22;;
43996;SDS011;34318;45.818;15.964;2023-07-31T07:17:07;2.45;;;2.25;;
43996;SDS011;34318;45.818;15.964;2023-07-31T07:19:34;2.50;;;2.30;;
43996;SDS011;34318;45.818;15.964;2023-07-31T07:22:02;4.18;;;2.60;;
43996;SDS011;34318;45.818;15.964;2023-07-31T07:24:29;2.45;;;2.25;;
43996;SDS011;34318;45.818;15.964;2023-07-31T07:26:56;2.78;;;2.40;;
43996;SDS011;34318;45.818;15.964;2023-07-31T07:29:24;2.35;;;2.15;;
43996;SDS011;34318;45.818;15.964;2023-07-31T07:31:52;2.55;;;2.40;;
43996;SDS011;34318;45.818;15.964;2023-07-31T07:34:19;2.50;;;2.30;;
43996;SDS011;34318;45.818;15.964;2023-07-31T07:36:46;2.78;;;2.58;;
43996;SDS011;34318;45.818;15.964;2023-07-31T07:39:14;2.50;;;2.30;;
43996;SDS011;34318;45.818;15.964;2023-07-31T07:41:41;2.30;;;2.20;;
43996;SDS011;34318;45.818;15.964;2023-07-31T07:44:08;2.35;;;2.15;;
43996;SDS011;34318;45.818;15.964;2023-07-31T07:46:35;3.05;;;2.67;;
43996;SDS011;34318;45.818;15.964;2023-07-31T07:49:03;2.40;;;2.20;;
43996;SDS011;34318;45.818;15.964;2023-07-31T07:51:30;2.70;;;2.50;;
43996;SDS011;34318;45.818;15.964;2023-07-31T07:53:58;2.70;;;2.50;;
43996;SDS011;34318;45.818;15.964;2023-07-31T07:56:25;2.85;;;2.65;;
43996;SDS011;34318;45.818;15.964;2023-07-31T07:58:53;2.47;;;2.28;;
43996;SDS011;34318;45.818;15.964;2023-07-31T08:01:20;2.30;;;2.20;;
43996;SDS011;34318;45.818;15.964;2023-07-31T08:03:48;2.90;;;2.15;;
43996;SDS011;34318;45.818;15.964;2023-07-31T08:06:15;3.40;;;2.55;;
43996;SDS011;34318;45.818;15.964;2023-07-31T08:08:42;2.13;;;2.00;;
43996;SDS011;34318;45.818;15.964;2023-07-31T08:11:09;2.70;;;2.50;;
43996;SDS011;34318;45.818;15.964;2023-07-31T08:13:37;2.60;;;2.40;;
43996;SDS011;34318;45.818;15.964;2023-07-31T08:16:04;2.70;;;2.50;;
43996;SDS011;34318;45.818;15.964;2023-07-31T08:18:31;2.63;;;2.42;;
43996;SDS011;34318;45.818;15.964;2023-07-31T08:20:59;2.75;;;2.33;;
43996;SDS011;34318;45.818;15.964;2023-07-31T08:23:28;2.15;;;2.05;;
43996;SDS011;34318;45.818;15.964;2023-07-31T08:25:55;2.40;;;2.20;;
43996;SDS011;34318;45.818;15.964;2023-07-31T08:28:22;2.50;;;2.30;;
43996;SDS011;34318;45.818;15.964;2023-07-31T08:30:50;2.50;;;2.30;;
43996;SDS011;34318;45.818;15.964;2023-07-31T08:33:17;2.67;;;2.38;;
43996;SDS011;34318;45.818;15.964;2023-07-31T08:35:44;2.22;;;2.10;;
43996;SDS011;34318;45.818;15.964;2023-07-31T08:38:11;2.40;;;2.20;;
43996;SDS011;34318;45.818;15.964;2023-07-31T08:40:39;2.72;;;2.50;;
43996;SDS011;34318;45.818;15.964;2023-07-31T08:43:06;3.05;;;2.40;;
43996;SDS011;34318;45.818;15.964;2023-07-31T08:45:37;2.40;;;2.15;;
43996;SDS011;34318;45.818;15.964;2023-07-31T08:48:04;3.10;;;2.33;;
43996;SDS011;34318;45.818;15.964;2023-07-31T08:50:32;2.50;;;2.30;;
43996;SDS011;34318;45.818;15.964;2023-07-31T08:52:59;2.53;;;2.33;;
43996;SDS011;34318;45.818;15.964;2023-07-31T08:55:26;2.78;;;2.58;;
43996;SDS011;34318;45.818;15.964;2023-07-31T08:57:54;2.85;;;2.65;;
43996;SDS011;34318;45.818;15.964;2023-07-31T09:00:22;2.45;;;2.25;;
43996;SDS011;34318;45.818;15.964;2023-07-31T09:02:56;2.67;;;2.47;;
43996;SDS011;34318;45.818;15.964;2023-07-31T09:05:23;2.70;;;2.50;;
43996;SDS011;34318;45.818;15.964;2023-07-31T09:07:53;2.40;;;2.20;;
43996;SDS011;34318;45.818;15.964;2023-07-31T09:10:23;2.63;;;2.42;;
43996;SDS011;34318;45.818;15.964;2023-07-31T09:12:53;2.75;;;2.55;;
43996;SDS011;34318;45.818;15.964;2023-07-31T09:15:20;2.47;;;2.28;;
43996;SDS011;34318;45.818;15.964;2023-07-31T09:18:03;2.80;;;2.60;;
43996;SDS011;34318;45.818;15.964;2023-07-31T09:20:31;2.55;;;2.30;;
43996;SDS011;34318;45.818;15.964;2023-07-31T09:23:06;2.85;;;2.60;;
43996;SDS011;34318;45.818;15.964;2023-07-31T09:25:34;2.80;;;2.60;;
43996;SDS011;34318;45.818;15.964;2023-07-31T09:28:03;3.47;;;3.17;;
43996;SDS011;34318;45.818;15.964;2023-07-31T09:30:36;2.60;;;2.40;;
43996;SDS011;34318;45.818;15.964;2023-07-31T09:33:10;2.97;;;2.40;;
43996;SDS011;34318;45.818;15.964;2023-07-31T09:35:37;2.55;;;2.30;;
43996;SDS011;34318;45.818;15.964;2023-07-31T09:38:07;2.55;;;2.35;;
43996;SDS011;34318;45.818;15.964;2023-07-31T09:40:36;2.65;;;2.45;;
43996;SDS011;34318;45.818;15.964;2023-07-31T09:43:05;3.10;;;2.60;;
43996;SDS011;34318;45.818;15.964;2023-07-31T09:45:36;3.03;;;2.72;;
43996;SDS011;34318;45.818;15.964;2023-07-31T09:48:08;3.10;;;2.80;;
43996;SDS011;34318;45.818;15.964;2023-07-31T09:50:39;3.05;;;2.75;;
43996;SDS011;34318;45.818;15.964;2023-07-31T09:53:07;2.47;;;2.28;;
43996;SDS011;34318;45.818;15.964;2023-07-31T09:55:35;2.50;;;2.30;;
43996;SDS011;34318;45.818;15.964;2023-07-31T09:58:03;2.70;;;2.50;;
43996;SDS011;34318;45.818;15.964;2023-07-31T10:00:31;2.78;;;2.45;;
43996;SDS011;34318;45.818;15.964;2023-07-31T10:02:59;3.03;;;2.72;;
43996;SDS011;34318;45.818;15.964;2023-07-31T10:05:40;3.25;;;2.95;;
43996;SDS011;34318;45.818;15.964;2023-07-31T10:08:09;3.17;;;2.75;;
43996;SDS011;34318;45.818;15.964;2023-07-31T10:10:37;2.72;;;2.53;;
43996;SDS011;34318;45.818;15.964;2023-07-31T10:13:05;2.75;;;2.42;;
43996;SDS011;34318;45.818;15.964;2023-07-31T10:15:32;2.50;;;2.30;;
43996;SDS011;34318;45.818;15.964;2023-07-31T10:18:00;2.75;;;2.55;;
43996;SDS011;34318;45.818;15.964;2023-07-31T10:20:28;3.40;;;3.10;;
43996;SDS011;34318;45.818;15.964;2023-07-31T10:22:56;2.42;;;2.28;;
43996;SDS011;34318;45.818;15.964;2023-07-31T10:25:23;2.72;;;2.53;;
43996;SDS011;34318;45.818;15.964;2023-07-31T10:27:51;3.30;;;3.00;;
43996;SDS011;34318;45.818;15.964;2023-07-31T10:30:20;3.00;;;2.80;;
43996;SDS011;34318;45.818;15.964;2023-07-31T10:32:48;2.90;;;2.60;;
43996;SDS011;34318;45.818;15.964;2023-07-31T10:35:17;3.03;;;2.60;;
43996;SDS011;34318;45.818;15.964;2023-07-31T10:37:44;3.20;;;2.42;;
43996;SDS011;34318;45.818;15.964;2023-07-31T10:40:12;2.50;;;2.30;;
43996;SDS011;34318;45.818;15.964;2023-07-31T10:42:47;4.18;;;2.70;;
43996;SDS011;34318;45.818;15.964;2023-07-31T10:48:06;2.97;;;2.47;;
43996;SDS011;34318;45.818;15.964;2023-07-31T10:50:37;3.55;;;2.65;;
43996;SDS011;34318;45.818;15.964;2023-07-31T10:53:05;2.72;;;2.45;;
43996;SDS011;34318;45.818;15.964;2023-07-31T10:55:38;3.10;;;2.80;;
43996;SDS011;34318;45.818;15.964;2023-07-31T10:58:10;2.88;;;2.60;;
43996;SDS011;34318;45.818;15.964;2023-07-31T11:00:39;2.70;;;2.50;;
43996;SDS011;34318;45.818;15.964;2023-07-31T11:03:07;3.17;;;2.47;;
43996;SDS011;34318;45.818;15.964;2023-07-31T11:08:23;2.72;;;2.53;;
43996;SDS011;34318;45.818;15.964;2023-07-31T11:13:30;2.80;;;2.50;;
43996;SDS011;34318;45.818;15.964;2023-07-31T11:15:58;2.58;;;2.38;;
43996;SDS011;34318;45.818;15.964;2023-07-31T11:18:28;2.80;;;2.60;;
43996;SDS011;34318;45.818;15.964;2023-07-31T11:20:55;3.10;;;2.78;;
43996;SDS011;34318;45.818;15.964;2023-07-31T11:23:22;3.83;;;2.50;;
43996;SDS011;34318;45.818;15.964;2023-07-31T11:25:50;2.70;;;2.50;;
43996;SDS011;34318;45.818;15.964;2023-07-31T11:28:18;2.70;;;2.50;;
43996;SDS011;34318;45.818;15.964;2023-07-31T11:30:45;2.88;;;2.67;;
43996;SDS011;34318;45.818;15.964;2023-07-31T11:33:13;2.60;;;2.40;;
43996;SDS011;34318;45.818;15.964;2023-07-31T11:35:45;3.10;;;2.80;;
43996;SDS011;34318;45.818;15.964;2023-07-31T11:38:12;3.55;;;2.78;;
43996;SDS011;34318;45.818;15.964;2023-07-31T11:40:49;2.88;;;2.67;;
43996;SDS011;34318;45.818;15.964;2023-07-31T11:43:16;2.47;;;2.30;;
43996;SDS011;34318;45.818;15.964;2023-07-31T11:45:46;2.65;;;2.45;;
43996;SDS011;34318;45.818;15.964;2023-07-31T11:48:23;2.75;;;2.40;;
43996;SDS011;34318;45.818;15.964;2023-07-31T11:50:50;3.38;;;2.60;;
43996;SDS011;34318;45.818;15.964;2023-07-31T11:54:04;2.92;;;2.67;;
43996;SDS011;34318;45.818;15.964;2023-07-31T11:56:05;3.13;;;2.83;;
43996;SDS011;34318;45.818;15.964;2023-07-31T11:58:34;2.97;;;2.75;;
43996;SDS011;34318;45.818;15.964;2023-07-31T12:01:01;2.60;;;2.40;;
43996;SDS011;34318;45.818;15.964;2023-07-31T12:03:29;3.65;;;2.60;;
43996;SDS011;34318;45.818;15.964;2023-07-31T12:05:56;2.75;;;2.53;;
43996;SDS011;34318;45.818;15.964;2023-07-31T12:08:25;2.70;;;2.50;;
43996;SDS011;34318;45.818;15.964;2023-07-31T12:10:53;2.88;;;2.60;;
43996;SDS011;34318;45.818;15.964;2023-07-31T12:13:21;2.90;;;2.70;;
43996;SDS011;34318;45.818;15.964;2023-07-31T12:15:53;2.78;;;2.58;;
43996;SDS011;34318;45.818;15.964;2023-07-31T12:18:20;2.70;;;2.50;;
43996;SDS011;34318;45.818;15.964;2023-07-31T12:20:49;2.55;;;2.35;;
43996;SDS011;34318;45.818;15.964;2023-07-31T12:23:18;2.53;;;2.30;;
43996;SDS011;34318;45.818;15.964;2023-07-31T12:25:59;2.72;;;2.53;;
43996;SDS011;34318;45.818;15.964;2023-07-31T12:28:27;3.05;;;2.78;;
43996;SDS011;34318;45.818;15.964;2023-07-31T12:30:57;2.70;;;2.50;;
43996;SDS011;34318;45.818;15.964;2023-07-31T12:33:32;2.70;;;2.50;;
43996;SDS011;34318;45.818;15.964;2023-07-31T12:36:00;2.92;;;2.60;;
43996;SDS011;34318;45.818;15.964;2023-07-31T12:38:28;3.13;;;2.90;;
43996;SDS011;34318;45.818;15.964;2023-07-31T12:40:55;2.90;;;2.60;;
43996;SDS011;34318;45.818;15.964;2023-07-31T12:43:23;2.92;;;2.72;;
43996;SDS011;34318;45.818;15.964;2023-07-31T12:45:50;2.70;;;2.50;;
43996;SDS011;34318;45.818;15.964;2023-07-31T12:48:17;2.88;;;2.67;;
43996;SDS011;34318;45.818;15.964;2023-07-31T12:50:44;2.90;;;2.70;;
43996;SDS011;34318;45.818;15.964;2023-07-31T12:53:12;2.83;;;2.63;;
43996;SDS011;34318;45.818;15.964;2023-07-31T12:55:39;2.88;;;2.53;;
43996;SDS011;34318;45.818;15.964;2023-07-31T12:58:06;2.60;;;2.40;;
43996;SDS011;34318;45.818;15.964;2023-07-31T13:00:33;2.67;;;2.47;;
43996;SDS011;34318;45.818;15.964;2023-07-31T13:03:01;3.08;;;2.78;;
43996;SDS011;34318;45.818;15.964;2023-07-31T13:05:29;2.78;;;2.58;;
43996;SDS011;34318;45.818;15.964;2023-07-31T13:07:56;3.10;;;2.60;;
43996;SDS011;34318;45.818;15.964;2023-07-31T13:10:24;2.85;;;2.50;;
43996;SDS011;34318;45.818;15.964;2023-07-31T13:12:53;2.70;;;2.50;;
43996;SDS011;34318;45.818;15.964;2023-07-31T13:15:20;3.03;;;2.60;;
43996;SDS011;34318;45.818;15.964;2023-07-31T13:17:47;2.80;;;2.50;;
43996;SDS011;34318;45.818;15.964;2023-07-31T13:20:14;2.90;;;2.70;;
43996;SDS011;34318;45.818;15.964;2023-07-31T13:22:42;2.60;;;2.40;;
43996;SDS011;34318;45.818;15.964;2023-07-31T13:25:12;2.80;;;2.60;;
43996;SDS011;34318;45.818;15.964;2023-07-31T13:27:39;2.67;;;2.47;;
43996;SDS011;34318;45.818;15.964;2023-07-31T13:30:06;2.50;;;2.30;;
43996;SDS011;34318;45.818;15.964;2023-07-31T13:32:34;2.80;;;2.60;;
43996;SDS011;34318;45.818;15.964;2023-07-31T13:35:08;3.72;;;3.42;;
43996;SDS011;34318;45.818;15.964;2023-07-31T13:37:37;3.13;;;2.90;;
43996;SDS011;34318;45.818;15.964;2023-07-31T13:40:04;3.20;;;2.90;;
43996;SDS011;34318;45.818;15.964;2023-07-31T13:42:32;3.10;;;2.90;;
43996;SDS011;34318;45.818;15.964;2023-07-31T13:45:00;2.70;;;2.50;;
43996;SDS011;34318;45.818;15.964;2023-07-31T13:47:31;2.70;;;2.50;;
43996;SDS011;34318;45.818;15.964;2023-07-31T13:49:59;3.10;;;2.80;;
43996;SDS011;34318;45.818;15.964;2023-07-31T13:52:26;2.55;;;2.40;;
43996;SDS011;34318;45.818;15.964;2023-07-31T13:54:54;2.80;;;2.60;;
43996;SDS011;34318;45.818;15.964;2023-07-31T13:57:21;3.28;;;3.08;;
43996;SDS011;34318;45.818;15.964;2023-07-31T13:59:49;3.35;;;3.05;;
43996;SDS011;34318;45.818;15.964;2023-07-31T14:02:17;3.53;;;2.85;;
43996;SDS011;34318;45.818;15.964;2023-07-31T14:04:44;2.83;;;2.63;;
43996;SDS011;34318;45.818;15.964;2023-07-31T14:07:11;2.72;;;2.53;;
43996;SDS011;34318;45.818;15.964;2023-07-31T14:09:38;3.67;;;3.35;;
43996;SDS011;34318;45.818;15.964;2023-07-31T14:12:06;3.33;;;3.03;;
43996;SDS011;34318;45.818;15.964;2023-07-31T14:14:33;3.00;;;2.80;;
43996;SDS011;34318;45.818;15.964;2023-07-31T14:17:00;2.80;;;2.60;;
43996;SDS011;34318;45.818;15.964;2023-07-31T14:19:28;3.05;;;2.80;;
43996;SDS011;34318;45.818;15.964;2023-07-31T14:21:58;2.90;;;2.70;;
43996;SDS011;34318;45.818;15.964;2023-07-31T14:24:36;4.25;;;2.80;;
43996;SDS011;34318;45.818;15.964;2023-07-31T14:27:03;2.88;;;2.60;;
43996;SDS011;34318;45.818;15.964;2023-07-31T14:29:31;3.17;;;2.97;;
43996;SDS011;34318;45.818;15.964;2023-07-31T14:31:58;3.30;;;3.00;;
43996;SDS011;34318;45.818;15.964;2023-07-31T14:34:26;3.10;;;2.70;;
43996;SDS011;34318;45.818;15.964;2023-07-31T14:36:56;2.95;;;2.75;;
43996;SDS011;34318;45.818;15.964;2023-07-31T14:39:23;2.55;;;2.38;;
43996;SDS011;34318;45.818;15.964;2023-07-31T14:41:50;2.70;;;2.50;;
43996;SDS011;34318;45.818;15.964;2023-07-31T14:44:18;3.72;;;2.47;;
43996;SDS011;34318;45.818;15.964;2023-07-31T14:46:45;2.60;;;2.40;;
43996;SDS011;34318;45.818;15.964;2023-07-31T14:49:12;3.35;;;3.05;;
43996;SDS011;34318;45.818;15.964;2023-07-31T14:51:39;3.17;;;2.97;;
43996;SDS011;34318;45.818;15.964;2023-07-31T14:54:06;4.00;;;2.67;;